Mauldin, SC (29662)

12:17 PM EDT on August 31, 2015 (GMT -0400)
Woodhedge | | Change Station
CLOSE
Current Station
Personal Weather Station
Location: Mauldin, SC
Elevation: 899 ft
Nearby Weather Stations

Elev 899 ft 34.77 °N, 82.31 °W | Updated 3 minutes ago

Clear
Clear
85.3 °F
Feels Like 88 °F
N
0.0
Wind Variable Wind from NNE

Today
High -- | Low -- °F
--% Chance of Precip.
Yesterday
High -- | Low -- °F
Precip. -- in
7:01 AM 7:57 PM
Waning Gibbous, 95% visible
Pressure 30.15 in
Visibility 10.0 miles
Clouds Clear
Heat Index 88 °F
Dew Point 67 °F
Humidity 55%
Rainfall 0.00 in
Snow Depth Not available.
UV 9 out of 12
Pollen 7.00 out of 12
Air Quality Not available.
Flu Activity Not available.
METAR KGYH 311547Z 06005KT 10SM CLR 26/17 A3015
Pressure 30.15 in
Visibility 10.0 miles
Clouds Clear
Heat Index 88 °F
Dew Point 67 °F
Humidity 55%
Rainfall 0.00 in
Snow Depth Not available.
UV 9 out of 12
Pollen 7.00 out of 12
Air Quality Not available.
Flu Activity Not available.
METAR KGYH 311547Z 06005KT 10SM CLR 26/17 A3015

10-Day Weather Forecast

×

Almanac

Astronomy

Aug. 31, 2015 Rise Set
Actual Time
Civil Twilight
Nautical Twilight
Astronomical Twilight
Moon
Length of Visible Light
Length of Day
Tomorrow will be .
, % of the Moon is Illuminated

Today's Extremes

State Highs State Lows

Community

WunderPhotos

Upload Photos

1,851,301 photos uploaded!

WunderBlogs® & News

Nearby

Air Quality

  Air Quality AQ Index Pollutant
Not available.

Snow Depth

Station Depth Elevation

Earthquake Activity

City Distance Mag. Time & Date
Minimum magnitude displayed is 2.5.

Coastal Water Temperatures

Place Temperature

Stations

Nearby Weather Stations

Station Location Temp. Windchill Dew Point Humidity Wind Precip. Elev Updated Type